createdAt,value
2018-01-24T00:01:08.071Z,77.55
2018-01-24T00:03:35.675Z,77.96
2018-01-24T00:06:03.210Z,77.59
2018-01-24T00:08:30.847Z,77.70
2018-01-24T00:10:58.378Z,77.29
2018-01-24T00:13:25.970Z,77.48
2018-01-24T00:15:53.515Z,77.62
2018-01-24T00:18:21.051Z,77.65
2018-01-24T00:20:48.699Z,77.82
2018-01-24T00:23:16.234Z,77.40
2018-01-24T00:25:43.770Z,77.31
2018-01-24T00:28:11.371Z,76.72
2018-01-24T00:30:38.902Z,75.93
2018-01-24T00:33:06.543Z,76.37
2018-01-24T00:35:34.070Z,75.04
2018-01-24T00:38:01.664Z,75.38
2018-01-24T00:40:29.210Z,75.53
2018-01-24T00:42:56.802Z,74.39
2018-01-24T00:45:24.439Z,74.44
2018-01-24T00:47:51.966Z,73.63
2018-01-24T00:50:19.566Z,73.23
2018-01-24T00:52:47.171Z,73.11
2018-01-24T00:55:14.762Z,70.73
2018-01-24T00:57:42.346Z,69.93
2018-01-24T01:00:09.974Z,71.09
2018-01-24T01:02:37.570Z,69.83
2018-01-24T01:05:05.118Z,67.43
2018-01-24T01:07:32.649Z,66.91
2018-01-24T01:10:00.292Z,64.37
2018-01-24T01:12:27.898Z,63.20
2018-01-24T01:14:55.430Z,63.50
2018-01-24T01:17:22.975Z,64.97
2018-01-24T01:19:50.569Z,61.94
2018-01-24T01:22:18.142Z,63.80
2018-01-24T01:24:45.726Z,64.45
2018-01-24T01:27:13.263Z,63.82
2018-01-24T01:29:40.806Z,63.38
2018-01-24T01:32:08.349Z,64.74
2018-01-24T01:34:35.987Z,62.00
2018-01-24T01:37:03.522Z,61.84
2018-01-24T01:39:31.054Z,62.31
2018-01-24T01:41:58.601Z,62.53
2018-01-24T01:44:26.237Z,63.62
2018-01-24T01:46:53.919Z,62.30
2018-01-24T01:49:21.550Z,62.67
2018-01-24T01:51:49.119Z,62.33
2018-01-24T01:54:16.702Z,63.67
2018-01-24T01:56:44.308Z,61.77
2018-01-24T01:59:11.950Z,60.45
2018-01-24T02:01:39.543Z,60.96
2018-01-24T02:04:07.135Z,60.71
2018-01-24T02:06:34.739Z,60.44
2018-01-24T02:09:02.270Z,61.81
2018-01-24T02:11:29.842Z,62.17
2018-01-24T02:13:57.374Z,62.45
2018-01-24T02:16:24.950Z,62.40
2018-01-24T02:18:52.551Z,62.12
2018-01-24T02:21:20.137Z,63.56
2018-01-24T02:23:47.750Z,63.69
2018-01-24T02:26:15.349Z,63.60
2018-01-24T02:28:42.882Z,63.55
2018-01-24T02:31:10.485Z,62.17
2018-01-24T02:33:38.018Z,62.13
2018-01-24T02:36:05.593Z,62.70
2018-01-24T02:38:44.898Z,62.99
2018-01-24T02:41:12.478Z,63.54
2018-01-24T02:43:40.010Z,62.39
2018-01-24T02:46:07.605Z,62.96
2018-01-24T02:48:35.149Z,61.90
2018-01-24T02:51:02.679Z,63.37
2018-01-24T02:53:30.314Z,62.88
2018-01-24T02:55:57.904Z,63.32
2018-01-24T02:58:25.434Z,62.43
2018-01-24T03:00:52.982Z,62.31
2018-01-24T03:03:20.514Z,62.74
2018-01-24T03:05:48.146Z,63.64
2018-01-24T03:08:15.679Z,63.59
2018-01-24T03:10:43.275Z,63.59
2018-01-24T03:13:10.817Z,63.43
2018-01-24T03:15:38.354Z,63.97
2018-01-24T03:18:05.930Z,65.08
2018-01-24T03:20:33.461Z,64.56
2018-01-24T03:23:01.052Z,66.19
2018-01-24T03:25:28.590Z,66.38
2018-01-24T03:27:56.163Z,64.91
2018-01-24T03:30:23.734Z,65.36
2018-01-24T03:32:51.266Z,64.94
2018-01-24T03:35:18.794Z,64.90
2018-01-24T03:37:46.342Z,64.83
2018-01-24T03:40:13.930Z,65.46
2018-01-24T03:42:41.503Z,65.52
2018-01-24T03:45:09.038Z,65.23
2018-01-24T03:47:36.569Z,65.24
2018-01-24T03:50:04.133Z,64.42
2018-01-24T03:52:31.731Z,65.15
2018-01-24T03:54:59.392Z,64.93
2018-01-24T03:57:26.986Z,64.67
2018-01-24T03:59:54.579Z,65.33
2018-01-24T04:02:22.121Z,63.77
2018-01-24T04:04:49.654Z,63.76
2018-01-24T04:07:17.290Z,64.91
2018-01-24T04:09:44.878Z,65.13
2018-01-24T04:12:12.470Z,65.29
2018-01-24T04:14:40.010Z,64.18
2018-01-24T04:17:07.541Z,64.57
2018-01-24T04:19:35.181Z,64.26
2018-01-24T04:22:02.710Z,64.54
2018-01-24T04:24:30.243Z,65.28
2018-01-24T04:26:57.843Z,65.91
2018-01-24T04:29:25.370Z,66.55
2018-01-24T04:31:53.002Z,65.73
2018-01-24T04:34:20.530Z,66.24
2018-01-24T04:36:48.058Z,65.59
2018-01-24T04:39:15.662Z,66.24
2018-01-24T04:41:43.254Z,66.28
2018-01-24T04:44:10.920Z,66.16
2018-01-24T04:46:38.450Z,64.28
2018-01-24T04:49:05.989Z,64.72
2018-01-24T04:51:33.575Z,65.23
2018-01-24T04:54:01.109Z,63.74
2018-01-24T04:56:28.782Z,64.01
2018-01-24T04:58:56.430Z,62.86
2018-01-24T05:01:24.007Z,64.08
2018-01-24T05:03:51.678Z,62.54
2018-01-24T05:06:19.205Z,62.81
2018-01-24T05:08:46.882Z,62.09
2018-01-24T05:11:14.514Z,62.60
2018-01-24T05:13:42.082Z,62.68
2018-01-24T05:16:09.661Z,62.74
2018-01-24T05:18:37.257Z,63.03
2018-01-24T05:21:05.758Z,63.07
2018-01-24T05:23:33.346Z,63.07
2018-01-24T05:26:00.879Z,64.32
2018-01-24T05:28:28.478Z,64.75
2018-01-24T05:30:56.026Z,62.26
2018-01-24T05:33:23.601Z,63.42
2018-01-24T05:35:51.139Z,63.90
2018-01-24T05:38:18.672Z,63.45
2018-01-24T05:40:46.271Z,62.94
2018-01-24T05:43:13.797Z,62.33
2018-01-24T05:45:41.439Z,61.01
2018-01-24T05:48:08.970Z,61.43
2018-01-24T05:50:36.567Z,61.32
2018-01-24T05:53:04.109Z,61.31
2018-01-24T05:55:31.638Z,61.69
2018-01-24T05:57:59.278Z,61.03
2018-01-24T06:00:26.809Z,61.65
2018-01-24T06:02:54.403Z,62.08
2018-01-24T06:05:21.941Z,60.73
2018-01-24T06:07:49.476Z,61.07
2018-01-24T06:10:17.103Z,61.53
2018-01-24T06:12:44.637Z,61.10
2018-01-24T06:15:12.231Z,61.16
2018-01-24T06:17:39.778Z,61.08
2018-01-24T06:20:07.309Z,62.00
2018-01-24T06:22:34.913Z,60.83
2018-01-24T06:25:02.512Z,61.18
2018-01-24T06:27:30.106Z,60.41
2018-01-24T06:29:57.746Z,59.93
2018-01-24T06:32:25.351Z,60.67
2018-01-24T06:34:53.018Z,60.91
2018-01-24T06:37:20.562Z,60.71
2018-01-24T06:39:48.101Z,60.06
2018-01-24T06:42:15.641Z,60.93
2018-01-24T06:44:43.169Z,59.69
2018-01-24T06:47:10.742Z,61.02
2018-01-24T06:49:38.334Z,59.68
2018-01-24T06:52:05.866Z,59.97
2018-01-24T06:54:33.416Z,59.73
2018-01-24T06:57:01.058Z,60.27
2018-01-24T06:59:28.630Z,60.82
2018-01-24T07:01:56.222Z,60.85
2018-01-24T07:04:23.817Z,60.61
2018-01-24T07:06:51.366Z,58.53
2018-01-24T07:09:18.903Z,58.68
2018-01-24T07:11:46.557Z,57.84
2018-01-24T07:14:25.974Z,58.45
2018-01-24T07:16:53.607Z,57.86
2018-01-24T07:19:21.142Z,57.69
2018-01-24T07:21:48.733Z,58.08
2018-01-24T07:24:16.270Z,57.09
2018-01-24T07:26:43.795Z,56.83
2018-01-24T07:29:11.434Z,56.78
2018-01-24T07:31:38.965Z,57.31
2018-01-24T07:34:06.503Z,57.40
2018-01-24T07:36:34.106Z,57.60
2018-01-24T07:39:01.633Z,57.17
2018-01-24T07:41:29.274Z,56.14
2018-01-24T07:43:56.806Z,57.84
2018-01-24T07:46:24.334Z,56.05
2018-01-24T07:48:51.891Z,56.01
2018-01-24T07:51:19.418Z,56.01
2018-01-24T07:53:47.094Z,54.08
2018-01-24T07:56:14.640Z,53.49
2018-01-24T07:58:42.267Z,52.53
2018-01-24T08:01:09.841Z,53.16
2018-01-24T08:03:37.406Z,53.06
2018-01-24T08:06:05.009Z,52.49
2018-01-24T08:08:32.598Z,51.71
2018-01-24T08:11:00.122Z,51.11
2018-01-24T08:13:27.718Z,51.35
2018-01-24T08:15:55.254Z,50.74
2018-01-24T08:18:22.832Z,51.52
2018-01-24T08:20:50.418Z,51.97
2018-01-24T08:23:18.002Z,51.84
2018-01-24T08:25:45.547Z,52.74
2018-01-24T08:28:13.141Z,52.12
2018-01-24T08:30:40.781Z,52.47
2018-01-24T08:33:08.354Z,51.47
2018-01-24T08:35:35.954Z,52.23
2018-01-24T08:38:03.518Z,51.77
2018-01-24T08:40:31.195Z,52.68
2018-01-24T08:42:58.769Z,50.79
2018-01-24T08:45:26.299Z,49.87
2018-01-24T08:47:53.886Z,50.91
2018-01-24T08:50:21.494Z,51.71
2018-01-24T08:52:49.188Z,50.04
2018-01-24T08:55:16.761Z,51.36
2018-01-24T08:57:44.346Z,51.99
2018-01-24T09:00:11.878Z,51.09
2018-01-24T09:02:39.477Z,50.56
2018-01-24T09:05:07.010Z,49.83
2018-01-24T09:07:34.657Z,48.21
2018-01-24T09:10:02.186Z,47.93
2018-01-24T09:12:29.718Z,49.07
2018-01-24T09:14:57.266Z,48.04
2018-01-24T09:17:24.802Z,48.88
2018-01-24T09:19:52.434Z,48.06
2018-01-24T09:22:19.967Z,48.74
2018-01-24T09:24:47.554Z,46.78
2018-01-24T09:27:15.090Z,46.93
2018-01-24T09:29:42.623Z,46.15
2018-01-24T09:32:10.319Z,47.57
2018-01-24T09:34:37.849Z,45.23
2018-01-24T09:37:05.378Z,44.76
2018-01-24T09:39:32.918Z,45.82
2018-01-24T09:42:00.506Z,45.55
2018-01-24T09:44:28.081Z,45.30
2018-01-24T09:46:55.618Z,44.34
2018-01-24T09:49:23.150Z,42.86
2018-01-24T09:51:50.698Z,41.78
2018-01-24T09:54:18.230Z,41.39
2018-01-24T09:56:45.869Z,40.70
2018-01-24T09:59:13.402Z,43.93
2018-01-24T10:01:40.990Z,41.63
2018-01-24T10:04:08.542Z,42.55
2018-01-24T10:06:36.143Z,41.00
2018-01-24T10:09:03.899Z,40.68
2018-01-24T10:11:31.429Z,41.09
2018-01-24T10:13:59.026Z,39.59
2018-01-24T10:16:26.575Z,39.54
2018-01-24T10:18:54.106Z,38.66
2018-01-24T10:21:21.744Z,42.03
2018-01-24T10:23:49.274Z,37.60
2018-01-24T10:26:16.867Z,38.01
2018-01-24T10:28:44.462Z,39.41
2018-01-24T10:31:11.993Z,39.41
2018-01-24T10:33:39.633Z,40.05
2018-01-24T10:36:07.163Z,39.28
2018-01-24T10:38:34.763Z,37.94
2018-01-24T10:41:02.306Z,37.90
2018-01-24T10:43:29.898Z,39.35
2018-01-24T10:45:57.530Z,37.46
2018-01-24T10:48:25.062Z,37.79
2018-01-24T10:50:52.593Z,36.83
2018-01-24T10:53:20.134Z,37.59
2018-01-24T10:55:47.661Z,36.33
2018-01-24T10:58:15.315Z,37.56
2018-01-24T11:00:43.117Z,36.20
2018-01-24T11:03:10.654Z,36.22
2018-01-24T11:05:38.259Z,35.00
2018-01-24T11:08:05.793Z,36.09
2018-01-24T11:10:33.361Z,34.74
2018-01-24T11:13:00.893Z,35.33
2018-01-24T11:15:28.429Z,34.43
2018-01-24T11:17:55.978Z,34.50
2018-01-24T11:20:23.616Z,33.00
2018-01-24T11:22:51.247Z,32.90
2018-01-24T11:25:18.867Z,34.00
2018-01-24T11:27:46.462Z,34.92
2018-01-24T11:30:14.070Z,34.46
2018-01-24T11:32:41.662Z,35.46
2018-01-24T11:35:09.238Z,36.76
2018-01-24T11:37:36.767Z,37.12
2018-01-24T11:40:04.307Z,36.81
2018-01-24T11:42:31.845Z,35.59
2018-01-24T11:44:59.374Z,35.49
2018-01-24T11:47:26.957Z,34.60
2018-01-24T11:49:54.494Z,35.01
2018-01-24T11:52:22.039Z,34.92
2018-01-24T11:54:49.582Z,36.49
2018-01-24T11:57:17.114Z,36.46
2018-01-24T11:59:44.678Z,36.67
2018-01-24T12:02:12.210Z,39.02
2018-01-24T12:04:39.746Z,42.07
2018-01-24T12:07:07.280Z,43.94
2018-01-24T12:09:34.814Z,44.39
2018-01-24T12:12:02.382Z,46.00
2018-01-24T12:14:29.918Z,47.42
2018-01-24T12:16:57.461Z,48.02
2018-01-24T12:19:25.007Z,48.26
2018-01-24T12:21:52.538Z,49.99
2018-01-24T12:24:20.105Z,50.24
2018-01-24T12:26:47.657Z,50.90
2018-01-24T12:29:15.186Z,50.99
2018-01-24T12:31:42.724Z,51.59
2018-01-24T12:34:10.257Z,52.61
2018-01-24T12:36:37.822Z,53.70
2018-01-24T12:39:05.387Z,53.13
2018-01-24T12:41:32.918Z,53.56
2018-01-24T12:44:00.457Z,53.52
2018-01-24T12:46:27.993Z,54.06
2018-01-24T12:48:55.566Z,54.02
2018-01-24T12:51:23.093Z,55.83
2018-01-24T12:53:50.638Z,55.27
2018-01-24T12:56:18.189Z,57.10
2018-01-24T12:58:45.733Z,54.54
2018-01-24T13:01:13.307Z,53.99
2018-01-24T13:03:40.833Z,53.15
2018-01-24T13:06:08.362Z,53.70
2018-01-24T13:08:35.914Z,53.50
2018-01-24T13:11:03.446Z,53.53
2018-01-24T13:13:31.029Z,53.27
2018-01-24T13:15:58.560Z,53.66
2018-01-24T13:18:26.150Z,52.75
2018-01-24T13:20:53.690Z,54.75
2018-01-24T13:23:21.221Z,55.92
2018-01-24T13:25:48.790Z,54.18
2018-01-24T13:28:16.327Z,56.52
2018-01-24T13:30:43.862Z,54.41
2018-01-24T13:33:11.405Z,52.89
2018-01-24T13:35:38.954Z,52.47
2018-01-24T13:38:06.559Z,54.00
2018-01-24T13:40:34.098Z,53.20
2018-01-24T13:43:01.680Z,52.43
2018-01-24T13:45:29.266Z,52.49
2018-01-24T13:47:56.816Z,53.12
2018-01-24T13:50:24.411Z,52.17
2018-01-24T13:52:51.993Z,52.45
2018-01-24T13:55:19.524Z,54.40
2018-01-24T13:57:47.110Z,54.48
2018-01-24T14:00:14.648Z,54.46
2018-01-24T14:02:42.313Z,54.05
2018-01-24T14:05:09.839Z,53.58
2018-01-24T14:07:37.374Z,54.33
2018-01-24T14:10:04.934Z,55.12
2018-01-24T14:12:32.465Z,55.12
2018-01-24T14:15:00.065Z,56.29
2018-01-24T14:17:27.612Z,56.07
2018-01-24T14:19:55.150Z,59.89
2018-01-24T14:22:22.690Z,61.50
2018-01-24T14:24:50.228Z,62.19
2018-01-24T14:27:17.878Z,62.17
2018-01-24T14:29:45.418Z,62.27
2018-01-24T14:32:12.954Z,62.00
2018-01-24T14:34:40.547Z,62.48
2018-01-24T14:37:08.078Z,62.72
2018-01-24T14:39:35.654Z,63.59
2018-01-24T14:42:03.202Z,63.97
2018-01-24T14:44:30.746Z,64.27
2018-01-24T14:46:58.298Z,64.85
2018-01-24T14:49:25.846Z,64.54
2018-01-24T14:51:53.421Z,64.20
2018-01-24T14:54:20.998Z,64.39
2018-01-24T14:56:48.538Z,65.94
2018-01-24T14:59:16.094Z,64.64
2018-01-24T15:01:43.638Z,65.23
2018-01-24T15:04:11.214Z,65.54
2018-01-24T15:06:38.793Z,67.12
2018-01-24T15:09:06.334Z,67.10
2018-01-24T15:11:33.886Z,68.27
2018-01-24T15:14:01.425Z,67.42
2018-01-24T15:16:29.100Z,67.77
2018-01-24T15:18:56.682Z,68.00
2018-01-24T15:21:24.223Z,68.66
2018-01-24T15:23:51.772Z,67.93
2018-01-24T15:26:19.368Z,68.66
2018-01-24T15:28:47.012Z,67.87
2018-01-24T15:31:14.567Z,66.88
2018-01-24T15:33:42.175Z,67.52
2018-01-24T15:36:09.892Z,67.41
2018-01-24T15:38:37.436Z,67.47
2018-01-24T15:41:05.105Z,67.30
2018-01-24T15:43:32.649Z,67.88
2018-01-24T15:46:00.200Z,67.30
2018-01-24T15:48:27.850Z,67.95
2018-01-24T15:50:55.398Z,68.00
2018-01-24T15:53:22.981Z,68.26
2018-01-24T15:55:50.582Z,69.31
2018-01-24T15:58:18.189Z,68.76
2018-01-24T16:00:45.767Z,69.09
2018-01-24T16:03:13.323Z,68.87
2018-01-24T16:05:40.922Z,68.27
2018-01-24T16:08:08.531Z,68.87
2018-01-24T16:10:36.179Z,69.63
2018-01-24T16:13:03.754Z,70.21
2018-01-24T16:15:31.310Z,69.89
2018-01-24T16:17:58.903Z,69.00
2018-01-24T16:20:26.459Z,69.82
2018-01-24T16:22:54.011Z,69.09
2018-01-24T16:25:21.558Z,70.07
2018-01-24T16:27:49.103Z,70.85
2018-01-24T16:30:16.719Z,71.27
2018-01-24T16:32:44.268Z,71.43
2018-01-24T16:35:11.824Z,71.37
2018-01-24T16:37:39.365Z,71.04
2018-01-24T16:40:07.001Z,71.66
2018-01-24T16:42:34.610Z,71.70
2018-01-24T16:45:02.154Z,71.96
2018-01-24T16:47:29.758Z,72.69
2018-01-24T16:49:57.418Z,73.30
2018-01-24T16:52:24.962Z,74.23
2018-01-24T16:54:53.489Z,74.57
2018-01-24T16:57:21.030Z,74.68
2018-01-24T16:59:48.614Z,74.80
2018-01-24T17:02:16.162Z,74.79
2018-01-24T17:04:43.762Z,74.75
2018-01-24T17:07:11.338Z,75.02
2018-01-24T17:09:38.881Z,75.19
2018-01-24T17:12:06.421Z,74.95
2018-01-24T17:14:33.982Z,75.03
2018-01-24T17:17:01.586Z,75.42
2018-01-24T17:19:29.228Z,75.74
2018-01-24T17:21:56.884Z,75.74
2018-01-24T17:24:24.444Z,75.81
2018-01-24T17:26:51.998Z,75.73
2018-01-24T17:29:19.603Z,75.27
2018-01-24T17:31:47.186Z,74.84
2018-01-24T17:34:14.799Z,75.13
2018-01-24T17:36:42.342Z,75.48
2018-01-24T17:39:09.894Z,76.08
2018-01-24T17:41:37.437Z,76.26
2018-01-24T17:44:05.031Z,77.02
2018-01-24T17:46:32.634Z,76.86
2018-01-24T17:49:00.169Z,77.11
2018-01-24T17:51:27.714Z,77.11
2018-01-24T17:53:55.258Z,77.16
2018-01-24T17:56:22.927Z,77.46
2018-01-24T17:58:50.483Z,77.62
2018-01-24T18:01:18.058Z,77.96
2018-01-24T18:03:45.602Z,77.79
2018-01-24T18:06:13.215Z,77.96
2018-01-24T18:08:40.806Z,78.26
2018-01-24T18:11:08.410Z,78.68
2018-01-24T18:13:35.951Z,78.79
2018-01-24T18:16:03.498Z,79.11
2018-01-24T18:18:31.052Z,79.40
2018-01-24T18:20:58.649Z,79.23
2018-01-24T18:23:26.210Z,79.51
2018-01-24T18:25:53.815Z,79.40
2018-01-24T18:28:21.365Z,79.29
2018-01-24T18:30:48.906Z,79.49
2018-01-24T18:33:16.551Z,79.47
2018-01-24T18:35:44.146Z,79.37
2018-01-24T18:38:11.743Z,79.28
2018-01-24T18:40:39.308Z,79.43
2018-01-24T18:43:06.854Z,79.75
2018-01-24T18:45:34.506Z,80.15
2018-01-24T18:48:02.110Z,80.09
2018-01-24T18:50:29.657Z,80.03
2018-01-24T18:52:57.320Z,79.85
2018-01-24T18:55:24.866Z,79.76
2018-01-24T18:57:52.518Z,79.63
2018-01-24T19:00:20.205Z,79.72
2018-01-24T19:02:47.746Z,79.73
2018-01-24T19:05:15.302Z,80.10
2018-01-24T19:07:42.846Z,80.14
2018-01-24T19:10:10.433Z,80.26
2018-01-24T19:12:37.992Z,80.43
2018-01-24T19:15:05.541Z,80.55
2018-01-24T19:17:33.094Z,80.43
2018-01-24T19:20:00.797Z,80.38
2018-01-24T19:22:28.406Z,80.56
2018-01-24T19:24:55.950Z,80.70
2018-01-24T19:27:23.494Z,80.51
2018-01-24T19:29:51.042Z,80.18
2018-01-24T19:32:18.583Z,80.18
2018-01-24T19:34:46.226Z,80.52
2018-01-24T19:37:13.822Z,80.45
2018-01-24T19:39:41.457Z,80.41
2018-01-24T19:42:09.002Z,80.55
2018-01-24T19:44:36.550Z,80.70
2018-01-24T19:47:04.162Z,80.53
2018-01-24T19:49:31.701Z,80.45
2018-01-24T19:51:59.248Z,80.51
2018-01-24T19:54:26.794Z,80.41
2018-01-24T19:56:54.381Z,80.31
2018-01-24T19:59:21.961Z,80.11
2018-01-24T20:01:49.502Z,80.07
2018-01-24T20:04:17.042Z,79.80
2018-01-24T20:06:44.588Z,79.93
2018-01-24T20:09:12.125Z,79.82
2018-01-24T20:11:39.710Z,79.66
2018-01-24T20:14:07.305Z,79.61
2018-01-24T20:16:34.911Z,79.25
2018-01-24T20:19:02.527Z,79.35
2018-01-24T20:21:30.066Z,79.52
2018-01-24T20:23:57.653Z,79.32
2018-01-24T20:26:25.226Z,78.94
2018-01-24T20:28:52.765Z,79.00
2018-01-24T20:31:20.315Z,78.82
2018-01-24T20:33:47.921Z,78.46
2018-01-24T20:36:15.505Z,78.74
2018-01-24T20:38:43.046Z,78.85
2018-01-24T20:41:10.586Z,78.70
2018-01-24T20:43:38.134Z,78.88
2018-01-24T20:46:05.730Z,79.01
2018-01-24T20:48:33.399Z,78.96
2018-01-24T20:51:00.951Z,78.81
2018-01-24T20:53:28.487Z,78.38
2018-01-24T20:55:56.034Z,78.29
2018-01-24T20:58:23.577Z,78.58
2018-01-24T21:00:51.171Z,79.09
2018-01-24T21:03:18.717Z,79.75
2018-01-24T21:05:46.310Z,80.25
2018-01-24T21:08:13.853Z,80.39
2018-01-24T21:10:41.453Z,79.94
2018-01-24T21:13:09.094Z,80.22
2018-01-24T21:15:36.637Z,80.21
2018-01-24T21:18:04.239Z,79.98
2018-01-24T21:20:31.790Z,80.31
2018-01-24T21:22:59.385Z,80.27
2018-01-24T21:25:26.965Z,80.34
2018-01-24T21:27:54.501Z,80.31
2018-01-24T21:30:22.198Z,80.52
2018-01-24T21:33:01.594Z,80.83
2018-01-24T21:35:41.076Z,81.09
2018-01-24T21:38:08.690Z,81.31
2018-01-24T21:40:36.229Z,81.47
2018-01-24T21:43:03.762Z,81.27
2018-01-24T21:45:31.314Z,81.23
2018-01-24T21:47:58.858Z,81.56
2018-01-24T21:50:26.398Z,81.62
2018-01-24T21:52:54.007Z,81.81
2018-01-24T21:55:21.614Z,81.76
2018-01-24T21:57:49.154Z,81.95
2018-01-24T22:00:16.817Z,82.12
2018-01-24T22:02:44.354Z,82.22
2018-01-24T22:05:11.896Z,82.34
2018-01-24T22:07:39.481Z,82.75
2018-01-24T22:10:07.015Z,82.91
2018-01-24T22:12:34.558Z,83.30
2018-01-24T22:15:02.146Z,83.28
2018-01-24T22:17:29.690Z,83.57
2018-01-24T22:19:57.229Z,84.01
2018-01-24T22:22:24.810Z,84.15
2018-01-24T22:24:52.353Z,83.90
2018-01-24T22:27:19.950Z,83.58
2018-01-24T22:29:47.536Z,83.41
2018-01-24T22:32:15.134Z,83.17
2018-01-24T22:34:42.674Z,83.13
2018-01-24T22:37:10.257Z,83.04
2018-01-24T22:39:37.833Z,82.97
2018-01-24T22:42:05.378Z,82.83
2018-01-24T22:44:33.002Z,82.34
2018-01-24T22:47:00.563Z,81.74
2018-01-24T22:49:28.095Z,81.68
2018-01-24T22:51:55.737Z,81.68
2018-01-24T22:54:23.346Z,81.63
2018-01-24T22:56:50.882Z,81.65
2018-01-24T22:59:18.522Z,81.71
2018-01-24T23:01:46.127Z,82.01
2018-01-24T23:04:13.711Z,82.00
2018-01-24T23:06:41.278Z,82.08
2018-01-24T23:09:08.810Z,82.23
2018-01-24T23:11:36.350Z,82.25
2018-01-24T23:14:03.938Z,82.23
2018-01-24T23:16:31.488Z,81.77
2018-01-24T23:18:59.025Z,81.43
2018-01-24T23:21:26.634Z,81.38
2018-01-24T23:23:54.286Z,81.32
2018-01-24T23:26:21.834Z,81.42
2018-01-24T23:28:49.473Z,81.62
2018-01-24T23:31:17.013Z,81.87
2018-01-24T23:33:44.550Z,82.06
2018-01-24T23:36:12.146Z,81.98
2018-01-24T23:38:39.738Z,82.03
2018-01-24T23:41:07.269Z,82.20
2018-01-24T23:43:34.845Z,82.31
2018-01-24T23:46:02.442Z,82.22
2018-01-24T23:48:30.011Z,82.31
2018-01-24T23:50:57.589Z,82.28
2018-01-24T23:53:25.126Z,81.86
2018-01-24T23:55:52.685Z,81.76
2018-01-24T23:58:20.270Z,81.86
